sensor_id;sensor_type;location;lat;lon;timestamp;temperature;humidity
70475;DHT22;57944;48.722;9.316;2022-09-30T00:00:36;7.10;99.90
70475;DHT22;57944;48.722;9.316;2022-09-30T00:03:06;7.00;99.90
70475;DHT22;57944;48.722;9.316;2022-09-30T00:05:36;7.10;99.90
70475;DHT22;57944;48.722;9.316;2022-09-30T00:08:06;7.10;99.90
70475;DHT22;57944;48.722;9.316;2022-09-30T00:10:37;7.20;99.90
70475;DHT22;57944;48.722;9.316;2022-09-30T00:13:09;7.20;99.90
70475;DHT22;57944;48.722;9.316;2022-09-30T00:18:38;7.20;99.90
70475;DHT22;57944;48.722;9.316;2022-09-30T00:21:09;7.30;99.90
70475;DHT22;57944;48.722;9.316;2022-09-30T00:23:43;7.20;99.90
70475;DHT22;57944;48.722;9.316;2022-09-30T00:26:15;7.30;99.90
70475;DHT22;57944;48.722;9.316;2022-09-30T00:28:49;7.30;99.90
70475;DHT22;57944;48.722;9.316;2022-09-30T00:31:21;7.40;99.90
70475;DHT22;57944;48.722;9.316;2022-09-30T00:33:55;7.50;99.90
70475;DHT22;57944;48.722;9.316;2022-09-30T00:36:53;7.20;99.90
70475;DHT22;57944;48.722;9.316;2022-09-30T00:39:26;7.30;99.90
70475;DHT22;57944;48.722;9.316;2022-09-30T00:44:52;7.40;99.90
70475;DHT22;57944;48.722;9.316;2022-09-30T00:47:41;7.40;99.90
70475;DHT22;57944;48.722;9.316;2022-09-30T00:50:29;7.30;99.90
70475;DHT22;57944;48.722;9.316;2022-09-30T00:53:09;7.20;99.90
70475;DHT22;57944;48.722;9.316;2022-09-30T00:58:34;7.30;99.90
70475;DHT22;57944;48.722;9.316;2022-09-30T01:01:13;7.50;99.90
70475;DHT22;57944;48.722;9.316;2022-09-30T01:06:26;7.50;99.90
70475;DHT22;57944;48.722;9.316;2022-09-30T01:11:40;7.30;99.90
70475;DHT22;57944;48.722;9.316;2022-09-30T01:14:13;7.30;99.90
70475;DHT22;57944;48.722;9.316;2022-09-30T01:19:54;7.40;99.90
70475;DHT22;57944;48.722;9.316;2022-09-30T01:22:44;7.50;99.90
70475;DHT22;57944;48.722;9.316;2022-09-30T01:28:45;7.50;99.90
70475;DHT22;57944;48.722;9.316;2022-09-30T01:31:46;7.70;99.90
70475;DHT22;57944;48.722;9.316;2022-09-30T01:34:30;7.70;99.90
70475;DHT22;57944;48.722;9.316;2022-09-30T01:37:13;7.70;99.90
70475;DHT22;57944;48.722;9.316;2022-09-30T01:39:59;7.80;99.90
70475;DHT22;57944;48.722;9.316;2022-09-30T01:42:37;7.50;99.90
70475;DHT22;57944;48.722;9.316;2022-09-30T01:45:15;7.50;99.90
70475;DHT22;57944;48.722;9.316;2022-09-30T01:48:13;7.40;99.90
70475;DHT22;57944;48.722;9.316;2022-09-30T01:50:53;7.40;99.90
70475;DHT22;57944;48.722;9.316;2022-09-30T01:53:32;7.30;99.90
70475;DHT22;57944;48.722;9.316;2022-09-30T01:56:12;7.30;99.90
70475;DHT22;57944;48.722;9.316;2022-09-30T01:59:03;7.30;99.90
70475;DHT22;57944;48.722;9.316;2022-09-30T02:01:40;7.10;99.90
70475;DHT22;57944;48.722;9.316;2022-09-30T02:04:18;7.00;99.90
70475;DHT22;57944;48.722;9.316;2022-09-30T02:06:56;7.10;99.90
70475;DHT22;57944;48.722;9.316;2022-09-30T02:09:36;7.20;99.90
70475;DHT22;57944;48.722;9.316;2022-09-30T02:14:59;7.20;99.90
70475;DHT22;57944;48.722;9.316;2022-09-30T02:17:38;7.30;99.90
70475;DHT22;57944;48.722;9.316;2022-09-30T02:20:15;7.30;99.90
70475;DHT22;57944;48.722;9.316;2022-09-30T02:22:52;7.30;99.90
70475;DHT22;57944;48.722;9.316;2022-09-30T02:25:28;7.30;99.90
70475;DHT22;57944;48.722;9.316;2022-09-30T02:28:04;7.30;99.90
70475;DHT22;57944;48.722;9.316;2022-09-30T02:30:54;7.10;99.90
70475;DHT22;57944;48.722;9.316;2022-09-30T02:33:31;7.10;99.90
70475;DHT22;57944;48.722;9.316;2022-09-30T02:36:09;7.00;99.90
70475;DHT22;57944;48.722;9.316;2022-09-30T02:41:47;6.90;99.90
70475;DHT22;57944;48.722;9.316;2022-09-30T02:44:35;7.00;99.90
70475;DHT22;57944;48.722;9.316;2022-09-30T02:47:11;6.90;99.90
70475;DHT22;57944;48.722;9.316;2022-09-30T02:49:46;6.90;99.90
70475;DHT22;57944;48.722;9.316;2022-09-30T02:52:27;6.70;99.90
70475;DHT22;57944;48.722;9.316;2022-09-30T02:55:17;6.70;99.90
70475;DHT22;57944;48.722;9.316;2022-09-30T02:58:03;6.70;99.90
70475;DHT22;57944;48.722;9.316;2022-09-30T03:00:40;6.90;99.90
70475;DHT22;57944;48.722;9.316;2022-09-30T03:03:14;6.90;99.90
70475;DHT22;57944;48.722;9.316;2022-09-30T03:05:48;7.00;99.90
70475;DHT22;57944;48.722;9.316;2022-09-30T03:08:19;7.10;99.90
70475;DHT22;57944;48.722;9.316;2022-09-30T03:10:50;7.10;99.90
70475;DHT22;57944;48.722;9.316;2022-09-30T03:13:40;7.10;99.90
70475;DHT22;57944;48.722;9.316;2022-09-30T03:16:43;7.00;99.90
70475;DHT22;57944;48.722;9.316;2022-09-30T03:19:37;7.10;99.90
70475;DHT22;57944;48.722;9.316;2022-09-30T03:22:29;7.20;99.90
70475;DHT22;57944;48.722;9.316;2022-09-30T03:25:22;7.20;99.90
70475;DHT22;57944;48.722;9.316;2022-09-30T03:28:08;7.30;99.90
70475;DHT22;57944;48.722;9.316;2022-09-30T03:30:56;7.30;99.90
70475;DHT22;57944;48.722;9.316;2022-09-30T03:33:40;7.20;99.90
70475;DHT22;57944;48.722;9.316;2022-09-30T03:36:23;7.30;99.90
70475;DHT22;57944;48.722;9.316;2022-09-30T03:39:00;7.30;99.90
70475;DHT22;57944;48.722;9.316;2022-09-30T03:41:40;7.30;99.90
70475;DHT22;57944;48.722;9.316;2022-09-30T03:44:19;7.30;99.90
70475;DHT22;57944;48.722;9.316;2022-09-30T03:47:01;7.30;99.90
70475;DHT22;57944;48.722;9.316;2022-09-30T03:49:39;7.20;99.90
70475;DHT22;57944;48.722;9.316;2022-09-30T03:52:15;7.30;99.90
70475;DHT22;57944;48.722;9.316;2022-09-30T03:54:48;7.30;99.90
70475;DHT22;57944;48.722;9.316;2022-09-30T03:57:24;7.20;99.90
70475;DHT22;57944;48.722;9.316;2022-09-30T03:59:55;7.30;99.90
70475;DHT22;57944;48.722;9.316;2022-09-30T04:02:28;7.20;99.90
70475;DHT22;57944;48.722;9.316;2022-09-30T04:04:58;7.30;99.90
70475;DHT22;57944;48.722;9.316;2022-09-30T04:07:28;7.30;99.90
70475;DHT22;57944;48.722;9.316;2022-09-30T04:09:59;7.30;99.90
70475;DHT22;57944;48.722;9.316;2022-09-30T04:12:29;7.30;99.90
70475;DHT22;57944;48.722;9.316;2022-09-30T04:14:59;7.30;99.90
70475;DHT22;57944;48.722;9.316;2022-09-30T04:17:32;7.20;99.90
70475;DHT22;57944;48.722;9.316;2022-09-30T04:20:03;7.20;99.90
70475;DHT22;57944;48.722;9.316;2022-09-30T04:22:33;7.20;99.90
70475;DHT22;57944;48.722;9.316;2022-09-30T04:25:05;7.10;99.90
70475;DHT22;57944;48.722;9.316;2022-09-30T04:27:36;7.20;99.90
70475;DHT22;57944;48.722;9.316;2022-09-30T04:30:07;7.10;99.90
70475;DHT22;57944;48.722;9.316;2022-09-30T04:32:43;7.10;99.90
70475;DHT22;57944;48.722;9.316;2022-09-30T04:35:14;7.10;99.90
70475;DHT22;57944;48.722;9.316;2022-09-30T04:37:45;7.20;99.90
70475;DHT22;57944;48.722;9.316;2022-09-30T04:40:16;7.20;99.90
70475;DHT22;57944;48.722;9.316;2022-09-30T04:42:46;7.10;99.90
70475;DHT22;57944;48.722;9.316;2022-09-30T04:45:16;6.90;99.90
70475;DHT22;57944;48.722;9.316;2022-09-30T04:47:50;6.90;99.90
70475;DHT22;57944;48.722;9.316;2022-09-30T04:50:20;6.50;99.90
70475;DHT22;57944;48.722;9.316;2022-09-30T04:52:50;6.60;99.90
70475;DHT22;57944;48.722;9.316;2022-09-30T04:55:23;6.50;99.90
70475;DHT22;57944;48.722;9.316;2022-09-30T04:57:53;6.60;99.90
70475;DHT22;57944;48.722;9.316;2022-09-30T05:00:23;6.80;99.90
70475;DHT22;57944;48.722;9.316;2022-09-30T05:02:56;6.90;99.90
70475;DHT22;57944;48.722;9.316;2022-09-30T05:05:26;7.10;99.90
70475;DHT22;57944;48.722;9.316;2022-09-30T05:07:59;7.10;99.90
70475;DHT22;57944;48.722;9.316;2022-09-30T05:10:30;7.10;99.90
70475;DHT22;57944;48.722;9.316;2022-09-30T05:13:01;6.90;99.90
70475;DHT22;57944;48.722;9.316;2022-09-30T05:15:33;6.90;99.90
70475;DHT22;57944;48.722;9.316;2022-09-30T05:18:06;6.90;99.90
70475;DHT22;57944;48.722;9.316;2022-09-30T05:20:36;6.80;99.90
70475;DHT22;57944;48.722;9.316;2022-09-30T05:23:06;6.90;99.90
70475;DHT22;57944;48.722;9.316;2022-09-30T05:25:36;7.10;99.90
70475;DHT22;57944;48.722;9.316;2022-09-30T05:28:07;7.20;99.90
70475;DHT22;57944;48.722;9.316;2022-09-30T05:30:37;7.20;99.90
70475;DHT22;57944;48.722;9.316;2022-09-30T05:33:11;7.10;99.90
70475;DHT22;57944;48.722;9.316;2022-09-30T05:35:42;7.10;99.90
70475;DHT22;57944;48.722;9.316;2022-09-30T05:38:13;7.00;99.90
70475;DHT22;57944;48.722;9.316;2022-09-30T05:40:43;6.90;99.90
70475;DHT22;57944;48.722;9.316;2022-09-30T05:43:14;6.80;99.90
70475;DHT22;57944;48.722;9.316;2022-09-30T05:45:51;6.70;99.90
70475;DHT22;57944;48.722;9.316;2022-09-30T05:48:25;6.70;99.90
70475;DHT22;57944;48.722;9.316;2022-09-30T05:50:56;6.60;99.90
70475;DHT22;57944;48.722;9.316;2022-09-30T05:53:28;6.50;99.90
70475;DHT22;57944;48.722;9.316;2022-09-30T05:55:58;6.50;99.90
70475;DHT22;57944;48.722;9.316;2022-09-30T05:58:28;6.60;99.90
70475;DHT22;57944;48.722;9.316;2022-09-30T06:01:03;6.70;99.90
70475;DHT22;57944;48.722;9.316;2022-09-30T06:03:42;6.90;99.90
70475;DHT22;57944;48.722;9.316;2022-09-30T06:06:14;7.00;99.90
70475;DHT22;57944;48.722;9.316;2022-09-30T06:08:45;7.20;99.90
70475;DHT22;57944;48.722;9.316;2022-09-30T06:11:17;7.40;99.90
70475;DHT22;57944;48.722;9.316;2022-09-30T06:13:51;7.70;99.90
70475;DHT22;57944;48.722;9.316;2022-09-30T06:16:22;7.80;99.90
70475;DHT22;57944;48.722;9.316;2022-09-30T06:18:55;7.90;99.90
70475;DHT22;57944;48.722;9.316;2022-09-30T06:21:25;7.90;99.90
70475;DHT22;57944;48.722;9.316;2022-09-30T06:23:55;7.90;99.90
70475;DHT22;57944;48.722;9.316;2022-09-30T06:26:25;8.00;99.90
70475;DHT22;57944;48.722;9.316;2022-09-30T06:28:55;8.10;99.90
70475;DHT22;57944;48.722;9.316;2022-09-30T06:31:26;8.30;99.90
70475;DHT22;57944;48.722;9.316;2022-09-30T06:33:59;8.40;99.90
70475;DHT22;57944;48.722;9.316;2022-09-30T06:36:30;8.60;99.90
70475;DHT22;57944;48.722;9.316;2022-09-30T06:39:02;8.80;99.90
70475;DHT22;57944;48.722;9.316;2022-09-30T06:41:38;8.90;99.90
70475;DHT22;57944;48.722;9.316;2022-09-30T06:44:17;9.10;99.90
70475;DHT22;57944;48.722;9.316;2022-09-30T06:46:47;9.10;99.90
70475;DHT22;57944;48.722;9.316;2022-09-30T06:49:22;9.20;99.90
70475;DHT22;57944;48.722;9.316;2022-09-30T06:52:03;9.20;99.90
70475;DHT22;57944;48.722;9.316;2022-09-30T06:54:33;9.30;99.90
70475;DHT22;57944;48.722;9.316;2022-09-30T06:57:03;9.10;99.90
70475;DHT22;57944;48.722;9.316;2022-09-30T06:59:33;9.10;99.90
70475;DHT22;57944;48.722;9.316;2022-09-30T07:02:04;9.10;99.90
70475;DHT22;57944;48.722;9.316;2022-09-30T07:04:37;9.30;99.90
70475;DHT22;57944;48.722;9.316;2022-09-30T07:07:07;9.30;99.90
70475;DHT22;57944;48.722;9.316;2022-09-30T07:09:38;9.30;99.90
70475;DHT22;57944;48.722;9.316;2022-09-30T07:12:09;9.40;99.90
70475;DHT22;57944;48.722;9.316;2022-09-30T07:14:39;9.40;99.90
70475;DHT22;57944;48.722;9.316;2022-09-30T07:17:09;9.40;99.90
70475;DHT22;57944;48.722;9.316;2022-09-30T07:19:42;9.40;99.90
70475;DHT22;57944;48.722;9.316;2022-09-30T07:22:12;9.70;99.90
70475;DHT22;57944;48.722;9.316;2022-09-30T07:25:01;9.70;99.90
70475;DHT22;57944;48.722;9.316;2022-09-30T07:27:33;9.80;99.90
70475;DHT22;57944;48.722;9.316;2022-09-30T07:30:04;10.10;99.90
70475;DHT22;57944;48.722;9.316;2022-09-30T07:32:44;10.30;99.90
70475;DHT22;57944;48.722;9.316;2022-09-30T07:35:16;10.40;99.90
70475;DHT22;57944;48.722;9.316;2022-09-30T07:37:47;10.50;99.90
70475;DHT22;57944;48.722;9.316;2022-09-30T07:40:17;11.00;99.90
70475;DHT22;57944;48.722;9.316;2022-09-30T07:42:47;11.40;99.90
70475;DHT22;57944;48.722;9.316;2022-09-30T07:45:17;11.70;99.90
70475;DHT22;57944;48.722;9.316;2022-09-30T07:47:48;12.80;99.90
70475;DHT22;57944;48.722;9.316;2022-09-30T07:50:22;13.90;99.90
70475;DHT22;57944;48.722;9.316;2022-09-30T07:52:52;15.20;99.90
70475;DHT22;57944;48.722;9.316;2022-09-30T07:55:22;16.50;99.90
70475;DHT22;57944;48.722;9.316;2022-09-30T07:57:52;17.80;99.90
70475;DHT22;57944;48.722;9.316;2022-09-30T08:00:22;18.70;99.90
70475;DHT22;57944;48.722;9.316;2022-09-30T08:03:09;18.90;99.90
70475;DHT22;57944;48.722;9.316;2022-09-30T08:05:42;19.60;99.90
70475;DHT22;57944;48.722;9.316;2022-09-30T08:08:16;20.30;99.90
70475;DHT22;57944;48.722;9.316;2022-09-30T08:10:46;21.00;99.90
70475;DHT22;57944;48.722;9.316;2022-09-30T08:13:17;21.40;99.50
70475;DHT22;57944;48.722;9.316;2022-09-30T08:15:47;21.20;98.30
70475;DHT22;57944;48.722;9.316;2022-09-30T08:18:18;20.70;98.60
70475;DHT22;57944;48.722;9.316;2022-09-30T08:20:50;19.90;98.80
70475;DHT22;57944;48.722;9.316;2022-09-30T08:23:20;18.80;99.90
70475;DHT22;57944;48.722;9.316;2022-09-30T08:25:51;18.60;99.90
70475;DHT22;57944;48.722;9.316;2022-09-30T08:28:21;18.20;99.90
70475;DHT22;57944;48.722;9.316;2022-09-30T08:30:51;17.90;99.90
70475;DHT22;57944;48.722;9.316;2022-09-30T08:33:21;17.20;99.90
70475;DHT22;57944;48.722;9.316;2022-09-30T08:35:54;16.60;99.90
70475;DHT22;57944;48.722;9.316;2022-09-30T08:38:24;16.00;99.90
70475;DHT22;57944;48.722;9.316;2022-09-30T08:41:10;15.50;99.90
70475;DHT22;57944;48.722;9.316;2022-09-30T08:44:00;15.50;99.90
70475;DHT22;57944;48.722;9.316;2022-09-30T08:46:44;15.80;99.90
70475;DHT22;57944;48.722;9.316;2022-09-30T08:49:40;15.90;99.90
70475;DHT22;57944;48.722;9.316;2022-09-30T08:52:27;15.80;99.90
70475;DHT22;57944;48.722;9.316;2022-09-30T08:55:19;15.60;99.90
70475;DHT22;57944;48.722;9.316;2022-09-30T08:57:52;15.50;99.90
70475;DHT22;57944;48.722;9.316;2022-09-30T09:00:25;15.70;99.90
70475;DHT22;57944;48.722;9.316;2022-09-30T09:02:56;16.00;99.90
70475;DHT22;57944;48.722;9.316;2022-09-30T09:05:37;16.30;99.90
70475;DHT22;57944;48.722;9.316;2022-09-30T09:08:27;16.70;99.90
70475;DHT22;57944;48.722;9.316;2022-09-30T09:11:10;17.20;99.90
70475;DHT22;57944;48.722;9.316;2022-09-30T09:13:52;17.90;99.90
70475;DHT22;57944;48.722;9.316;2022-09-30T09:16:31;18.80;99.90
70475;DHT22;57944;48.722;9.316;2022-09-30T09:19:08;19.30;99.90
70475;DHT22;57944;48.722;9.316;2022-09-30T09:21:49;20.30;99.90
70475;DHT22;57944;48.722;9.316;2022-09-30T09:24:27;21.10;99.70
70475;DHT22;57944;48.722;9.316;2022-09-30T09:26:59;21.30;98.70
70475;DHT22;57944;48.722;9.316;2022-09-30T09:29:44;21.70;98.30
70475;DHT22;57944;48.722;9.316;2022-09-30T09:32:24;22.20;97.40
70475;DHT22;57944;48.722;9.316;2022-09-30T09:34:59;23.10;96.40
70475;DHT22;57944;48.722;9.316;2022-09-30T09:37:41;23.60;95.30
70475;DHT22;57944;48.722;9.316;2022-09-30T09:40:42;25.70;94.70
70475;DHT22;57944;48.722;9.316;2022-09-30T09:43:31;27.40;90.80
70475;DHT22;57944;48.722;9.316;2022-09-30T09:46:20;28.80;87.50
70475;DHT22;57944;48.722;9.316;2022-09-30T09:52:39;30.10;81.40
70475;DHT22;57944;48.722;9.316;2022-09-30T09:55:21;29.80;79.20
70475;DHT22;57944;48.722;9.316;2022-09-30T09:58:08;28.00;79.30
70475;DHT22;57944;48.722;9.316;2022-09-30T10:00:41;26.70;82.50
70475;DHT22;57944;48.722;9.316;2022-09-30T10:03:25;25.90;83.70
70475;DHT22;57944;48.722;9.316;2022-09-30T10:06:00;25.40;85.60
70475;DHT22;57944;48.722;9.316;2022-09-30T10:08:35;25.90;87.20
70475;DHT22;57944;48.722;9.316;2022-09-30T10:11:17;27.20;85.30
70475;DHT22;57944;48.722;9.316;2022-09-30T10:13:56;28.80;82.00
70475;DHT22;57944;48.722;9.316;2022-09-30T10:16:31;28.40;77.70
70475;DHT22;57944;48.722;9.316;2022-09-30T10:19:15;27.30;79.10
70475;DHT22;57944;48.722;9.316;2022-09-30T10:21:48;28.40;79.60
70475;DHT22;57944;48.722;9.316;2022-09-30T10:24:27;27.10;76.80
70475;DHT22;57944;48.722;9.316;2022-09-30T10:26:59;26.20;80.20
70475;DHT22;57944;48.722;9.316;2022-09-30T10:29:33;26.20;83.50
70475;DHT22;57944;48.722;9.316;2022-09-30T10:32:06;27.60;78.50
70475;DHT22;57944;48.722;9.316;2022-09-30T10:34:39;28.60;77.00
70475;DHT22;57944;48.722;9.316;2022-09-30T10:37:14;29.00;75.50
70475;DHT22;57944;48.722;9.316;2022-09-30T10:39:53;26.70;72.90
70475;DHT22;57944;48.722;9.316;2022-09-30T10:42:28;25.80;77.70
70475;DHT22;57944;48.722;9.316;2022-09-30T10:45:15;26.20;78.90
70475;DHT22;57944;48.722;9.316;2022-09-30T10:47:51;25.30;79.30
70475;DHT22;57944;48.722;9.316;2022-09-30T10:50:25;25.90;78.60
70475;DHT22;57944;48.722;9.316;2022-09-30T10:52:58;25.60;78.70
70475;DHT22;57944;48.722;9.316;2022-09-30T10:55:33;26.90;76.60
70475;DHT22;57944;48.722;9.316;2022-09-30T10:58:22;27.00;75.20
70475;DHT22;57944;48.722;9.316;2022-09-30T11:01:05;27.20;75.40
70475;DHT22;57944;48.722;9.316;2022-09-30T11:03:51;26.70;73.20
70475;DHT22;57944;48.722;9.316;2022-09-30T11:06:27;25.40;75.80
70475;DHT22;57944;48.722;9.316;2022-09-30T11:09:03;26.00;73.10
70475;DHT22;57944;48.722;9.316;2022-09-30T11:11:42;25.60;73.20
70475;DHT22;57944;48.722;9.316;2022-09-30T11:14:26;24.90;74.60
70475;DHT22;57944;48.722;9.316;2022-09-30T11:17:19;25.40;71.20
70475;DHT22;57944;48.722;9.316;2022-09-30T11:20:05;27.30;71.90
70475;DHT22;57944;48.722;9.316;2022-09-30T11:22:48;27.40;67.50
70475;DHT22;57944;48.722;9.316;2022-09-30T11:25:27;26.80;69.10
70475;DHT22;57944;48.722;9.316;2022-09-30T11:31:18;29.20;66.10
70475;DHT22;57944;48.722;9.316;2022-09-30T11:34:25;30.40;64.20
70475;DHT22;57944;48.722;9.316;2022-09-30T11:37:12;30.00;60.70
70475;DHT22;57944;48.722;9.316;2022-09-30T11:40:01;27.70;64.50
70475;DHT22;57944;48.722;9.316;2022-09-30T11:42:47;27.20;67.20
70475;DHT22;57944;48.722;9.316;2022-09-30T11:45:30;27.70;66.20
70475;DHT22;57944;48.722;9.316;2022-09-30T11:48:29;28.00;63.40
70475;DHT22;57944;48.722;9.316;2022-09-30T11:51:19;29.30;61.20
70475;DHT22;57944;48.722;9.316;2022-09-30T11:54:08;29.30;59.50
70475;DHT22;57944;48.722;9.316;2022-09-30T11:56:54;31.50;57.40
70475;DHT22;57944;48.722;9.316;2022-09-30T11:59:47;29.40;55.50
70475;DHT22;57944;48.722;9.316;2022-09-30T12:02:28;28.70;56.90
70475;DHT22;57944;48.722;9.316;2022-09-30T12:05:08;29.50;57.30
70475;DHT22;57944;48.722;9.316;2022-09-30T12:07:50;29.50;55.90
70475;DHT22;57944;48.722;9.316;2022-09-30T12:10:30;28.70;55.40
70475;DHT22;57944;48.722;9.316;2022-09-30T12:13:08;29.20;54.30
70475;DHT22;57944;48.722;9.316;2022-09-30T12:15:41;27.80;57.10
70475;DHT22;57944;48.722;9.316;2022-09-30T12:18:16;27.50;56.90
70475;DHT22;57944;48.722;9.316;2022-09-30T12:20:54;28.40;57.00
70475;DHT22;57944;48.722;9.316;2022-09-30T12:23:34;28.50;57.30
70475;DHT22;57944;48.722;9.316;2022-09-30T12:26:13;27.40;54.90
70475;DHT22;57944;48.722;9.316;2022-09-30T12:28:49;27.90;56.70
70475;DHT22;57944;48.722;9.316;2022-09-30T12:31:50;28.20;55.80
70475;DHT22;57944;48.722;9.316;2022-09-30T12:34:42;26.30;57.00
70475;DHT22;57944;48.722;9.316;2022-09-30T12:37:39;25.10;58.50
70475;DHT22;57944;48.722;9.316;2022-09-30T12:40:35;23.20;59.40
70475;DHT22;57944;48.722;9.316;2022-09-30T12:46:37;19.40;67.90
70475;DHT22;57944;48.722;9.316;2022-09-30T12:49:21;18.40;72.50
70475;DHT22;57944;48.722;9.316;2022-09-30T12:51:55;17.60;74.70
70475;DHT22;57944;48.722;9.316;2022-09-30T12:54:31;17.10;78.20
70475;DHT22;57944;48.722;9.316;2022-09-30T12:57:07;16.70;78.00
70475;DHT22;57944;48.722;9.316;2022-09-30T12:59:52;16.40;80.10
70475;DHT22;57944;48.722;9.316;2022-09-30T13:02:29;16.30;81.40
70475;DHT22;57944;48.722;9.316;2022-09-30T13:05:43;16.10;82.20
70475;DHT22;57944;48.722;9.316;2022-09-30T13:08:41;16.10;82.50
70475;DHT22;57944;48.722;9.316;2022-09-30T13:11:38;16.00;82.20
70475;DHT22;57944;48.722;9.316;2022-09-30T13:14:22;16.00;83.20
70475;DHT22;57944;48.722;9.316;2022-09-30T13:17:26;16.20;84.80
70475;DHT22;57944;48.722;9.316;2022-09-30T13:19:56;16.50;79.20
70475;DHT22;57944;48.722;9.316;2022-09-30T13:22:55;17.10;80.40
70475;DHT22;57944;48.722;9.316;2022-09-30T13:25:26;18.00;77.90
70475;DHT22;57944;48.722;9.316;2022-09-30T13:28:28;18.40;76.20
70475;DHT22;57944;48.722;9.316;2022-09-30T13:31:15;18.40;74.50
70475;DHT22;57944;48.722;9.316;2022-09-30T13:34:08;18.10;72.10
70475;DHT22;57944;48.722;9.316;2022-09-30T13:36:56;17.50;71.30
70475;DHT22;57944;48.722;9.316;2022-09-30T13:39:29;17.20;74.10
70475;DHT22;57944;48.722;9.316;2022-09-30T13:42:19;16.90;76.10
70475;DHT22;57944;48.722;9.316;2022-09-30T13:45:02;16.90;77.00
70475;DHT22;57944;48.722;9.316;2022-09-30T13:47:42;16.70;77.70
70475;DHT22;57944;48.722;9.316;2022-09-30T13:50:16;16.40;76.70
70475;DHT22;57944;48.722;9.316;2022-09-30T13:52:51;16.40;77.90
70475;DHT22;57944;48.722;9.316;2022-09-30T13:55:28;16.40;78.00
70475;DHT22;57944;48.722;9.316;2022-09-30T13:58:15;16.30;78.20
70475;DHT22;57944;48.722;9.316;2022-09-30T14:01:12;16.10;80.10
70475;DHT22;57944;48.722;9.316;2022-09-30T14:04:12;16.00;80.50
70475;DHT22;57944;48.722;9.316;2022-09-30T14:07:10;15.90;80.50
70475;DHT22;57944;48.722;9.316;2022-09-30T14:10:09;15.80;80.90
70475;DHT22;57944;48.722;9.316;2022-09-30T14:13:04;15.70;82.30
70475;DHT22;57944;48.722;9.316;2022-09-30T14:16:02;15.70;81.50
70475;DHT22;57944;48.722;9.316;2022-09-30T14:19:17;15.70;81.60
70475;DHT22;57944;48.722;9.316;2022-09-30T14:22:12;15.70;83.40
70475;DHT22;57944;48.722;9.316;2022-09-30T14:24:45;15.60;82.10
70475;DHT22;57944;48.722;9.316;2022-09-30T14:27:35;15.70;83.30
70475;DHT22;57944;48.722;9.316;2022-09-30T14:30:17;15.70;83.30
70475;DHT22;57944;48.722;9.316;2022-09-30T14:32:52;15.90;83.50
70475;DHT22;57944;48.722;9.316;2022-09-30T14:35:30;15.90;82.20
70475;DHT22;57944;48.722;9.316;2022-09-30T14:38:03;16.00;81.50
70475;DHT22;57944;48.722;9.316;2022-09-30T14:40:38;15.90;81.20
70475;DHT22;57944;48.722;9.316;2022-09-30T14:43:19;15.70;81.90
70475;DHT22;57944;48.722;9.316;2022-09-30T14:46:00;15.70;83.30
70475;DHT22;57944;48.722;9.316;2022-09-30T14:48:37;15.50;84.90
70475;DHT22;57944;48.722;9.316;2022-09-30T14:51:13;15.30;87.00
70475;DHT22;57944;48.722;9.316;2022-09-30T14:53:55;15.40;86.20
70475;DHT22;57944;48.722;9.316;2022-09-30T14:56:29;15.40;85.50
70475;DHT22;57944;48.722;9.316;2022-09-30T14:59:15;15.50;82.10
70475;DHT22;57944;48.722;9.316;2022-09-30T15:01:49;15.60;81.70
70475;DHT22;57944;48.722;9.316;2022-09-30T15:04:26;15.70;83.00
70475;DHT22;57944;48.722;9.316;2022-09-30T15:07:02;15.50;86.20
70475;DHT22;57944;48.722;9.316;2022-09-30T15:09:35;15.50;86.70
70475;DHT22;57944;48.722;9.316;2022-09-30T15:12:11;15.50;84.30
70475;DHT22;57944;48.722;9.316;2022-09-30T15:14:45;15.60;82.30
70475;DHT22;57944;48.722;9.316;2022-09-30T15:17:18;15.50;81.50
70475;DHT22;57944;48.722;9.316;2022-09-30T15:19:50;15.50;83.40
70475;DHT22;57944;48.722;9.316;2022-09-30T15:22:26;15.50;83.10
70475;DHT22;57944;48.722;9.316;2022-09-30T15:24:58;15.30;85.40
70475;DHT22;57944;48.722;9.316;2022-09-30T15:27:29;15.00;85.10
70475;DHT22;57944;48.722;9.316;2022-09-30T15:30:21;14.90;84.00
70475;DHT22;57944;48.722;9.316;2022-09-30T15:32:58;15.00;83.70
70475;DHT22;57944;48.722;9.316;2022-09-30T15:35:30;15.00;84.60
70475;DHT22;57944;48.722;9.316;2022-09-30T15:38:13;15.10;83.40
70475;DHT22;57944;48.722;9.316;2022-09-30T15:41:01;15.20;84.50
70475;DHT22;57944;48.722;9.316;2022-09-30T15:43:39;15.20;84.30
70475;DHT22;57944;48.722;9.316;2022-09-30T15:46:28;15.20;83.60
70475;DHT22;57944;48.722;9.316;2022-09-30T15:49:03;15.10;83.00
70475;DHT22;57944;48.722;9.316;2022-09-30T15:51:37;15.00;87.90
70475;DHT22;57944;48.722;9.316;2022-09-30T15:54:34;15.00;84.20
70475;DHT22;57944;48.722;9.316;2022-09-30T16:00:29;14.80;88.30
70475;DHT22;57944;48.722;9.316;2022-09-30T16:03:24;14.70;91.00
70475;DHT22;57944;48.722;9.316;2022-09-30T16:06:05;14.30;92.00
70475;DHT22;57944;48.722;9.316;2022-09-30T16:08:41;14.00;93.60
70475;DHT22;57944;48.722;9.316;2022-09-30T16:11:24;14.00;93.10
70475;DHT22;57944;48.722;9.316;2022-09-30T16:13:57;14.10;93.30
70475;DHT22;57944;48.722;9.316;2022-09-30T16:16:31;14.10;92.90
70475;DHT22;57944;48.722;9.316;2022-09-30T16:19:04;14.10;94.20
70475;DHT22;57944;48.722;9.316;2022-09-30T16:21:41;13.90;96.20
70475;DHT22;57944;48.722;9.316;2022-09-30T16:24:43;13.70;97.70
70475;DHT22;57944;48.722;9.316;2022-09-30T16:27:30;13.50;97.30
70475;DHT22;57944;48.722;9.316;2022-09-30T16:30:00;13.40;98.00
70475;DHT22;57944;48.722;9.316;2022-09-30T16:32:36;13.20;99.60
70475;DHT22;57944;48.722;9.316;2022-09-30T16:35:16;13.20;99.90
70475;DHT22;57944;48.722;9.316;2022-09-30T16:37:48;13.00;99.90
70475;DHT22;57944;48.722;9.316;2022-09-30T16:40:22;12.80;99.90
70475;DHT22;57944;48.722;9.316;2022-09-30T16:42:57;12.80;99.90
70475;DHT22;57944;48.722;9.316;2022-09-30T16:45:33;12.80;99.90
70475;DHT22;57944;48.722;9.316;2022-09-30T16:48:08;12.80;99.90
70475;DHT22;57944;48.722;9.316;2022-09-30T16:50:44;12.60;99.90
70475;DHT22;57944;48.722;9.316;2022-09-30T16:53:17;12.50;99.90
70475;DHT22;57944;48.722;9.316;2022-09-30T16:55:48;12.30;99.90
70475;DHT22;57944;48.722;9.316;2022-09-30T16:58:20;12.20;99.90
70475;DHT22;57944;48.722;9.316;2022-09-30T17:00:51;12.00;99.90
70475;DHT22;57944;48.722;9.316;2022-09-30T17:03:21;11.80;99.90
70475;DHT22;57944;48.722;9.316;2022-09-30T17:05:51;11.70;99.90
70475;DHT22;57944;48.722;9.316;2022-09-30T17:08:22;11.50;99.90
70475;DHT22;57944;48.722;9.316;2022-09-30T17:10:52;11.50;99.90
70475;DHT22;57944;48.722;9.316;2022-09-30T17:13:26;11.30;99.90
70475;DHT22;57944;48.722;9.316;2022-09-30T17:15:56;11.20;99.90
70475;DHT22;57944;48.722;9.316;2022-09-30T17:18:27;11.20;99.90
70475;DHT22;57944;48.722;9.316;2022-09-30T17:20:57;11.00;99.90
70475;DHT22;57944;48.722;9.316;2022-09-30T17:23:28;10.90;99.90
70475;DHT22;57944;48.722;9.316;2022-09-30T17:25:58;10.80;99.90